Terminal Aerodrome Forecast
Issued by NWS Twin Cities, MN

Home | Current Version | Previous Version | Graphics & Text | Print | Product List | Glossary On
Versions: 1 2 3 4 5 6 7 8 9 10 11 12 13 14 15 16 17 18
000
FTUS43 KMPX 262339
TAFEAU
TAF
KEAU 262339Z 2700/2724 VRB02KT P6SM SKC
     FM270800 00000KT 5SM BR SKC
     FM270900 00000KT 3/4SM BR SCT002
      TEMPO 2710/2712 1/4SM FG VV002
     FM271300 16005KT P6SM FEW250
     FM271800 16008KT P6SM SCT050 BKN250=

USA.gov is the U.S. government's official web portal to all federal, state and local government web resources and services.